createdAt,value
2022-12-11T13:51:01.368Z,9.70
2022-12-11T13:53:27.962Z,7.93
2022-12-11T13:56:01.350Z,9.15
2022-12-11T13:58:28.236Z,5.85
2022-12-11T14:01:11.251Z,6.53
2022-12-11T14:03:43.453Z,6.50
2022-12-11T14:06:18.035Z,6.25
2022-12-11T14:08:46.212Z,5.00
2022-12-11T14:11:21.765Z,3.85
2022-12-11T14:13:48.588Z,4.50
2022-12-11T14:16:20.514Z,5.18
2022-12-11T14:18:48.692Z,7.18
2022-12-11T14:21:19.791Z,6.05
2022-12-11T14:23:51.468Z,7.18
2022-12-11T14:26:19.778Z,7.10
2022-12-11T14:28:46.400Z,6.90
2022-12-11T14:31:14.995Z,8.18
2022-12-11T14:33:43.832Z,7.45
2022-12-11T14:36:10.669Z,7.05
2022-12-11T14:38:45.077Z,7.68
2022-12-11T14:41:23.963Z,9.52
2022-12-11T14:43:52.966Z,8.00
2022-12-11T14:46:26.054Z,8.43
2022-12-11T14:49:00.368Z,11.70
2022-12-11T14:51:29.588Z,8.88
2022-12-11T14:53:56.167Z,8.65
2022-12-11T14:56:27.455Z,8.30
2022-12-11T14:59:04.909Z,9.05
2022-12-11T15:01:32.873Z,9.30
2022-12-11T15:04:14.385Z,7.55
2022-12-11T15:06:44.834Z,7.85
2022-12-11T15:09:19.124Z,8.55
2022-12-11T15:11:47.091Z,7.05
2022-12-11T15:14:13.855Z,8.07
2022-12-11T15:16:41.646Z,10.20
2022-12-11T15:19:16.408Z,8.35
2022-12-11T15:21:43.311Z,7.88
2022-12-11T15:24:22.414Z,8.57
2022-12-11T15:26:48.849Z,10.70
2022-12-11T15:29:27.503Z,8.32
2022-12-11T15:32:20.284Z,8.40
2022-12-11T15:34:48.339Z,9.43
2022-12-11T15:37:17.617Z,9.35
2022-12-11T15:39:43.965Z,7.88
2022-12-11T15:42:13.493Z,9.23
2022-12-11T15:44:40.602Z,10.52
2022-12-11T15:47:15.741Z,8.02
2022-12-11T15:49:42.085Z,8.43
2022-12-11T15:52:08.692Z,8.10
2022-12-11T15:54:35.050Z,8.07
2022-12-11T15:57:03.568Z,8.98
2022-12-11T15:59:30.426Z,7.72
2022-12-11T16:01:56.928Z,12.38
2022-12-11T16:04:23.302Z,7.32
2022-12-11T16:06:50.471Z,8.13
2022-12-11T16:09:16.811Z,8.85
2022-12-11T16:11:43.227Z,8.50
2022-12-11T16:14:09.578Z,8.20
2022-12-11T16:16:35.918Z,7.90
2022-12-11T16:19:02.264Z,7.78
2022-12-11T16:21:28.620Z,9.05
2022-12-11T16:23:54.977Z,9.40
2022-12-11T16:26:21.332Z,7.47
2022-12-11T16:28:47.843Z,8.38
2022-12-11T16:31:15.092Z,8.98
2022-12-11T16:33:41.557Z,8.35
2022-12-11T16:36:16.057Z,9.10
2022-12-11T16:38:51.425Z,13.52
2022-12-11T16:41:19.768Z,11.45
2022-12-11T16:43:46.181Z,13.52
2022-12-11T16:46:12.633Z,14.65
2022-12-11T16:48:39.026Z,15.10
2022-12-11T16:51:05.958Z,15.45
2022-12-11T16:53:32.343Z,17.17
2022-12-11T16:55:58.675Z,16.92
2022-12-11T16:58:25.024Z,15.98
2022-12-11T17:00:51.438Z,16.67
2022-12-11T17:03:19.030Z,16.23
2022-12-11T17:05:45.440Z,15.80
2022-12-11T17:08:12.297Z,14.70
2022-12-11T17:10:39.521Z,17.77
2022-12-11T17:13:05.822Z,18.98
2022-12-11T17:15:32.469Z,14.30
2022-12-11T17:17:58.893Z,15.68
2022-12-11T17:20:25.563Z,14.48
2022-12-11T17:22:51.926Z,15.13
2022-12-11T17:25:22.292Z,14.20
2022-12-11T17:27:49.317Z,13.40
2022-12-11T17:30:15.687Z,14.88
2022-12-11T17:32:46.681Z,18.10
2022-12-11T17:35:13.696Z,20.00
2022-12-11T17:37:40.463Z,22.73
2022-12-11T17:40:07.084Z,22.65
2022-12-11T17:42:33.631Z,36.63
2022-12-11T17:45:00.000Z,43.50
2022-12-11T17:47:26.571Z,47.53
2022-12-11T17:49:52.930Z,37.08
2022-12-11T17:52:19.519Z,44.60
2022-12-11T17:54:45.897Z,36.50
2022-12-11T17:57:12.214Z,31.55
2022-12-11T17:59:38.633Z,33.50
2022-12-11T18:02:05.018Z,32.72
2022-12-11T18:04:31.408Z,29.88
2022-12-11T18:06:57.713Z,30.27
2022-12-11T18:09:24.115Z,28.55
2022-12-11T18:11:51.179Z,28.00
2022-12-11T18:14:17.868Z,31.38
2022-12-11T18:16:44.254Z,24.42
2022-12-11T18:19:10.618Z,24.45
2022-12-11T18:21:40.349Z,23.95
2022-12-11T18:24:06.962Z,21.67
2022-12-11T18:26:33.306Z,24.20
2022-12-11T18:28:59.659Z,23.85
2022-12-11T18:31:26.070Z,21.08
2022-12-11T18:33:52.610Z,19.25
2022-12-11T18:36:20.257Z,22.75
2022-12-11T18:38:47.843Z,19.00
2022-12-11T18:43:40.723Z,18.85
2022-12-11T18:46:08.465Z,21.70
2022-12-11T18:48:34.974Z,17.25
2022-12-11T18:51:01.358Z,18.13
2022-12-11T18:53:27.950Z,18.40
2022-12-11T18:56:00.086Z,19.15
2022-12-11T18:58:26.864Z,15.55
2022-12-11T19:00:53.327Z,13.13
2022-12-11T19:03:19.739Z,17.63
2022-12-11T19:05:46.083Z,16.48
2022-12-11T19:08:13.793Z,14.20
2022-12-11T19:10:44.500Z,15.15
2022-12-11T19:13:11.292Z,14.82
2022-12-11T19:15:38.983Z,14.75
2022-12-11T19:18:05.579Z,14.82
2022-12-11T19:20:48.754Z,14.63
2022-12-11T19:23:15.758Z,12.52
2022-12-11T19:25:43.149Z,13.63
2022-12-11T19:28:09.963Z,12.93
2022-12-11T19:30:36.823Z,12.32
2022-12-11T19:33:03.176Z,11.02
2022-12-11T19:35:29.555Z,11.73
2022-12-11T19:37:55.913Z,14.48
2022-12-11T19:40:26.103Z,12.63
2022-12-11T19:42:53.117Z,10.70
2022-12-11T19:45:19.713Z,10.63
2022-12-11T19:47:46.134Z,12.40
2022-12-11T19:50:12.505Z,10.93
2022-12-11T19:52:44.434Z,10.48
2022-12-11T19:57:41.232Z,9.93
2022-12-11T20:00:08.168Z,9.52
2022-12-11T20:02:38.621Z,8.52
2022-12-11T20:05:05.319Z,8.32
2022-12-11T20:07:31.972Z,9.15
2022-12-11T20:10:00.070Z,8.73
2022-12-11T20:12:26.441Z,7.70
2022-12-11T20:14:52.908Z,8.10
2022-12-11T20:17:19.337Z,8.05
2022-12-11T20:19:45.977Z,7.60
2022-12-11T20:22:12.386Z,7.15
2022-12-11T20:24:38.782Z,6.55
2022-12-11T20:27:05.120Z,6.78
2022-12-11T20:29:31.428Z,7.95
2022-12-11T20:31:59.815Z,7.55
2022-12-11T20:34:26.642Z,7.03
2022-12-11T20:36:53.158Z,6.95
2022-12-11T20:39:19.613Z,6.00
2022-12-11T20:41:45.976Z,7.65
2022-12-11T20:44:12.343Z,6.30
2022-12-11T20:46:38.762Z,6.80
2022-12-11T20:49:09.788Z,39.13
2022-12-11T20:51:36.208Z,150.05
2022-12-11T20:54:02.548Z,98.70
2022-12-11T20:56:29.984Z,73.38
2022-12-11T20:58:56.555Z,53.85
2022-12-11T21:01:25.234Z,46.08
2022-12-11T21:03:53.194Z,35.85
2022-12-11T21:06:28.363Z,29.85
2022-12-11T21:08:54.749Z,26.50
2022-12-11T21:11:21.462Z,21.17
2022-12-11T21:13:49.841Z,21.50
2022-12-11T21:16:18.041Z,20.77
2022-12-11T21:18:46.487Z,17.58
2022-12-11T21:21:13.005Z,16.13
2022-12-11T21:23:39.401Z,17.23
2022-12-11T21:26:06.140Z,16.27
2022-12-11T21:28:35.437Z,15.38
2022-12-11T21:31:04.100Z,14.30
2022-12-11T21:33:31.320Z,14.52
2022-12-11T21:35:58.342Z,12.48
2022-12-11T21:38:25.034Z,13.00
2022-12-11T21:40:51.972Z,12.32
2022-12-11T21:43:18.646Z,13.38
2022-12-11T21:46:01.833Z,13.52
2022-12-11T21:48:28.941Z,10.57
2022-12-11T21:50:55.354Z,11.65
2022-12-11T21:53:21.792Z,11.75
2022-12-11T21:55:48.228Z,11.50
2022-12-11T21:58:15.665Z,11.95
2022-12-11T22:00:42.250Z,10.18
2022-12-11T22:03:08.838Z,10.90
2022-12-11T22:05:35.355Z,10.23
2022-12-11T22:08:01.844Z,15.07
2022-12-11T22:10:28.421Z,10.43
2022-12-11T22:12:54.965Z,10.48
2022-12-11T22:15:21.304Z,10.00
2022-12-11T22:17:47.733Z,8.93
2022-12-11T22:20:14.645Z,9.85
2022-12-11T22:22:41.149Z,9.25
2022-12-11T22:25:07.841Z,9.30
2022-12-11T22:27:34.259Z,10.20
2022-12-11T22:30:00.674Z,9.48
2022-12-11T22:32:27.721Z,9.88
2022-12-11T22:34:56.224Z,10.57
2022-12-11T22:37:22.709Z,8.48
2022-12-11T22:39:49.145Z,9.10
2022-12-11T22:42:15.726Z,8.18
2022-12-11T22:44:42.815Z,8.88
2022-12-11T22:47:09.194Z,8.70
2022-12-11T22:49:35.710Z,8.68
2022-12-11T22:52:02.057Z,9.20
2022-12-11T22:54:28.408Z,9.38
2022-12-11T22:56:55.307Z,23.48
2022-12-11T22:59:22.596Z,24.90
2022-12-11T23:01:49.019Z,12.15
2022-12-11T23:04:15.388Z,9.77
2022-12-11T23:06:41.744Z,9.27
2022-12-11T23:09:08.203Z,9.30
2022-12-11T23:11:36.898Z,8.50
2022-12-11T23:14:04.069Z,8.32
2022-12-11T23:16:30.454Z,7.50
2022-12-11T23:18:57.502Z,7.75
2022-12-11T23:21:24.987Z,7.90
2022-12-11T23:23:51.314Z,7.93
2022-12-11T23:26:18.688Z,7.28
2022-12-11T23:28:45.581Z,6.70
2022-12-11T23:31:12.245Z,7.25
2022-12-11T23:33:38.741Z,7.10
2022-12-11T23:36:05.356Z,6.90
2022-12-11T23:38:31.977Z,22.58
2022-12-11T23:41:00.950Z,26.00
2022-12-11T23:43:27.575Z,28.00
2022-12-11T23:45:54.576Z,13.70
2022-12-11T23:48:21.047Z,12.18
2022-12-11T23:50:48.105Z,9.48
2022-12-11T23:53:14.857Z,8.15
2022-12-11T23:55:42.326Z,7.82
2022-12-11T23:58:08.964Z,8.98
